Accueil
METAR-TAF:

METAR-TAF

Aéroports :

Aéroport d'Oxford Kidlington

Oxford, Angleterre

latitude: 51-50-13N, longitude: 1-19-12W, altitude: 82 m

Observation

Le bulletin a été fait il y a 16 minutes, à 20:20 UTC
Vent 6 kt de sud/sud-est
Température 5°C
Humidité 100%
Pression 999 hPa
Visibilité 10 km ou plus
Nuages épars à une hauteur de 2000 ft
Nuages épars à une hauteur de 3200 ft

METAR: EGTK 152020Z 16006KT 9999 SCT020 SCT032 05/05 Q0999

Heure: 20:36 (20:36 UTC)

Prévision

Le bulletin a été fait il y a 32 minutes, à 20:04 UTC
Prévision valable du 15 à 21 UTC au 15 à 23 UTC
Vent 10 kt de sud-est
Visibilité 10 km ou plus
Nuages épars à une hauteur de 2000 ft
Evoluant progressivement
du 15 à 21 UTC au 15 à 23 UTC
Vent 9 kt de sud/sud-ouest

TAF: EGTK 152004Z 1521/1523 14010KT 9999 SCT020 BECMG 1521/1523 21009KT

Observations et prévisions météorologiques de plus de 4000 aéroports (messages METAR et TAF).

Les stations disponibles sont représentées par des disques jaunes et rouges sur la carte.

Passer la souris dessus pour voir le nom de la station.

Cliquer dessus pour voir les observations et prévisions météorologiques.

Pour changer de carte: cliquez sur les boutons verts avec une croix noire pour zoomer, sur le bouton vert avec un tiret pour effectuer un zoom arrière, ou sur les flèches vertes pour les cartes adjacentes.


METAR-TAF: